Latest Weather Observations for Oodnadatta

IDS60801

Issued at 9:51 pm CST Thursday 24 September 2020 (issued every 10 minutes, with the page automatically refreshed every 10 minutes)

About weather observations | Map of weather stations | Latest weather observations for SA | Other Formats
Station Details ID: 017043 Name: OODNADATTA AIRPORT Lat: -27.56 Lon: 135.45 Height: 116.5 m
Data from the previous 72 hours. | See also: Recent months at Oodnadatta
Date/Time
CST
Temp
°C
App
Temp
°C
Dew
Point
°C
Rel
Hum
%
Delta-T
°C
Wind Press
QNH
hPa
Press
MSL
hPa
Rain since
9am
mm
Dir  Spd
km/h
Gust
km/h
Spd
kts
Gust
kts
24/09:30pm 19.7 14.7 1.2 29 8.4 SSW 17 20 9 11 1016.2 1015.9 0.0
24/09:00pm 19.8 16.4 1.7 30 8.3 SW 9 11 5 6 1016.1 1015.8 0.0
24/08:30pm 20.5 16.7 1.9 29 8.6 WSW 11 13 6 7 1016.0 1015.7 0.0
24/08:00pm 20.7 16.9 2.0 29 8.7 WSW 11 13 6 7 1016.0 1015.7 0.0
24/07:30pm 21.4 17.3 2.2 28 9.0 WSW 13 15 7 8 1016.0 1015.7 0.0
24/07:00pm 22.3 18.1 1.9 26 9.6 W 13 19 7 10 1015.8 1015.5 0.0
24/06:30pm 23.2 18.4 2.7 26 9.8 WSW 17 22 9 12 1015.8 1015.5 0.0
24/06:00pm 23.8 19.0 2.6 25 10.2 W 17 20 9 11 1015.8 1015.5 0.0
24/05:30pm 24.2 18.1 2.9 25 10.3 W 24 35 13 19 1015.8 1015.5 0.0
24/05:00pm 24.7 18.7 3.4 25 10.5 WSW 24 35 13 19 1015.8 1015.5 0.0
24/04:30pm 24.6 18.5 2.7 24 10.6 W 24 33 13 18 1015.9 1015.6 0.0
24/04:00pm 24.7 18.3 3.4 25 10.5 W 26 33 14 18 1016.2 1015.9 0.0
24/03:30pm 24.7 19.1 3.4 25 10.5 W 22 32 12 17 1016.6 1016.3 0.0
24/03:00pm 24.2 18.6 3.5 26 10.1 W 22 33 12 18 1016.8 1016.5 0.0
24/02:30pm 23.3 18.1 3.3 27 9.7 WNW 20 37 11 20 1017.1 1016.8 0.0
24/02:00pm 23.8 18.2 3.7 27 9.9 SW 22 32 12 17 1017.8 1017.6 0.0
24/01:30pm 23.7 18.8 4.1 28 9.7 WSW 19 30 10 16 1018.5 1018.3 0.0
24/01:00pm 22.3 18.7 4.8 32 8.7 NW 13 20 7 11 1019.0 1018.8 0.0
24/12:30pm 21.7 17.7 4.7 33 8.4 W 15 26 8 14 1020.0 1019.7 0.0
24/12:00pm 21.0 17.7 4.6 34 8.0 WNW 11 19 6 10 1020.8 1020.5 0.0
24/11:30am 19.8 16.8 4.3 36 7.5 NNW 9 17 5 9 1021.4 1021.1 0.0
24/11:00am 19.3 16.7 4.3 37 7.2 SSW 7 17 4 9 1021.9 1021.6 0.0
24/10:30am 18.4 15.9 4.6 40 6.6 S 7 13 4 7 1022.3 1022.0 0.0
24/10:00am 17.3 14.0 4.3 42 6.2 SSE 11 17 6 9 1022.7 1022.4 0.0
24/09:30am 16.9 12.8 4.6 44 5.8 SE 15 22 8 12 1022.6 1022.3 0.0
24/09:00am 16.0 11.1 4.1 45 5.5 SSE 19 24 10 13 1022.4 1022.1 0.0
24/08:30am 15.7 9.9 4.4 47 5.3 SE 24 30 13 16 1022.1 1021.8 0.0
24/08:00am 14.7 9.9 4.4 50 4.8 SE 19 26 10 14 1022.1 1021.8 0.0
24/07:30am 12.3 8.9 3.8 56 3.8 SSE 11 13 6 7 1022.2 1021.9 0.0
24/07:00am 10.5 6.9 2.8 59 3.3 S 11 13 6 7 1022.1 1021.8 0.0
24/06:30am 10.1 6.0 2.2 58 3.4 S 13 17 7 9 1022.0 1021.7 0.0
24/06:00am 10.6 6.5 2.2 56 3.6 SSW 13 15 7 8 1021.7 1021.4 0.0
24/05:30am 10.7 6.6 2.3 56 3.6 SSW 13 17 7 9 1021.1 1020.8 0.0
24/05:00am 10.9 9.1 1.4 52 4.0 CALM 0 0 0 0 1020.7 1020.4 0.0
24/04:30am 11.5 9.7 1.5 50 4.2 CALM 0 0 0 0 1020.7 1020.4 0.0
24/04:00am 11.8 10.0 1.4 49 4.4 CALM 0 0 0 0 1020.5 1020.2 0.0
24/03:30am 12.1 10.4 1.7 49 4.4 CALM 0 0 0 0 1020.5 1020.2 0.0
24/03:00am 12.0 10.2 1.1 47 4.6 CALM 0 0 0 0 1020.7 1020.4 0.0
24/02:30am 12.6 11.0 2.5 50 4.4 CALM 0 0 0 0 1020.9 1020.6 0.0
24/02:00am 12.0 10.3 1.6 49 4.4 CALM 0 0 0 0 1021.1 1020.8 0.0
24/01:30am 13.5 11.9 2.4 47 4.9 CALM 0 0 0 0 1021.4 1021.1 0.0
24/01:00am 13.8 12.1 2.1 45 5.1 CALM 0 0 0 0 1021.6 1021.3 0.0
24/12:30am 14.3 11.3 1.9 43 5.4 SE 7 7 4 4 1021.7 1021.4 0.0
24/12:00am 15.2 12.3 2.4 42 5.7 SSE 7 9 4 5 1021.8 1021.5 0.0
 
Date/Time
CST
Temp
°C
App
Temp
°C
Dew
Point
°C
Rel
Hum
%
Delta-T
°C
Wind Press
QNH
hPa
Press
MSL
hPa
Rain since
9am
mm
Dir  Spd
km/h
Gust
km/h
Spd
kts
Gust
kts
23/11:30pm 15.6 12.7 2.4 41 5.9 SE 7 9 4 5 1022.2 1021.9 0.0
23/11:00pm 15.7 12.4 2.2 40 6.0 SE 9 9 5 5 1022.5 1022.2 0.0
23/10:30pm 16.7 12.6 2.3 38 6.5 SSE 13 15 7 8 1022.5 1022.2 0.0
23/10:00pm 17.1 13.0 2.3 37 6.7 SSE 13 15 7 8 1022.5 1022.2 0.0
23/09:30pm 18.7 14.3 2.5 34 7.5 SSE 15 19 8 10 1022.5 1022.2 0.0
23/09:00pm 19.3 14.5 2.6 33 7.7 S 17 19 9 10 1022.3 1022.0 0.0
23/08:30pm 19.7 15.3 2.6 32 7.9 SSE 15 20 8 11 1022.0 1021.7 0.0
23/08:00pm 20.7 15.6 3.0 31 8.4 S 19 22 10 12 1021.7 1021.4 0.0
23/07:30pm 21.3 16.2 3.0 30 8.7 S 19 22 10 12 1021.4 1021.1 0.0
23/07:00pm 21.9 17.1 2.6 28 9.2 SSW 17 20 9 11 1021.2 1020.9 0.0
23/06:30pm 22.5 16.7 2.1 26 9.6 SSW 22 28 12 15 1020.9 1020.6 0.0
23/06:00pm 23.3 17.9 1.0 23 10.3 SSW 19 24 10 13 1020.8 1020.5 0.0
23/05:30pm 23.7 18.1 1.4 23 10.5 S 20 26 11 14 1020.6 1020.3 0.0
23/05:00pm 24.5 19.5 1.4 22 10.9 SW 17 26 9 14 1020.6 1020.3 0.0
23/04:30pm 24.1 18.4 2.9 25 10.2 SW 22 37 12 20 1020.7 1020.4 0.0
23/04:00pm 23.9 18.2 2.7 25 10.2 SSW 22 37 12 20 1020.8 1020.5 0.0
23/03:30pm 23.9 17.7 2.1 24 10.4 SW 24 35 13 19 1020.8 1020.5 0.0
23/03:00pm 23.2 17.8 1.5 24 10.1 WSW 19 33 10 18 1021.2 1020.9 0.0
23/02:30pm 22.7 17.3 2.2 26 9.7 SSW 20 30 11 16 1021.7 1021.4 0.0
23/02:00pm 23.4 18.6 2.8 26 9.9 SSW 17 22 9 12 1022.0 1021.7 0.0
23/01:30pm 22.2 16.1 2.8 28 9.2 S 24 43 13 23 1022.5 1022.2 0.0
23/01:00pm 22.6 16.1 2.7 27 9.5 S 26 39 14 21 1022.9 1022.6 0.0
23/12:30pm 21.5 15.9 3.2 30 8.7 SSW 22 35 12 19 1023.5 1023.2 0.0
23/12:00pm 21.3 17.0 3.0 30 8.7 SW 15 26 8 14 1024.1 1023.8 0.0
23/11:30am 20.8 16.3 4.4 34 8.0 SSW 17 28 9 15 1024.6 1024.3 0.0
23/11:00am 20.3 16.1 3.9 34 7.9 S 15 24 8 13 1024.7 1024.5 0.0
23/10:30am 19.4 16.0 4.0 36 7.3 SSE 11 19 6 10 1024.9 1024.7 0.0
23/10:00am 19.5 15.1 4.8 38 7.2 SE 17 22 9 12 1025.2 1025.0 0.0
23/09:30am 18.5 14.1 4.7 40 6.6 SE 17 24 9 13 1025.3 1025.1 0.0
23/09:00am 17.0 12.6 4.7 44 5.8 SE 17 24 9 13 1025.4 1025.2 0.0
23/08:30am 15.9 13.1 5.2 49 5.1 SE 9 17 5 9 1025.3 1025.1 0.0
23/08:00am 14.6 11.7 4.9 52 4.6 SSE 9 11 5 6 1025.0 1024.8 0.0
23/07:30am 13.3 11.0 4.7 56 4.0 SSE 6 9 3 5 1024.5 1024.2 0.0
23/07:00am 11.4 8.6 3.2 57 3.6 SSW 7 9 4 5 1023.9 1023.6 0.0
23/06:30am 10.5 7.8 2.6 58 3.4 S 6 9 3 5 1023.5 1023.2 0.0
23/06:00am 11.2 7.6 3.0 57 3.6 S 11 13 6 7 1023.0 1022.7 0.0
23/05:30am 11.2 7.9 2.5 55 3.8 SSW 9 11 5 6 1022.7 1022.4 0.0
23/05:00am 11.6 8.3 2.6 54 3.9 SSW 9 11 5 6 1022.3 1022.0 0.0
23/04:30am 12.4 9.1 2.6 51 4.3 S 9 13 5 7 1021.8 1021.5 0.0
23/04:00am 12.8 8.4 2.6 50 4.5 SSE 15 17 8 9 1021.7 1021.4 0.0
23/03:30am 13.3 9.7 2.8 49 4.6 S 11 13 6 7 1021.7 1021.4 0.0
23/03:00am 14.4 9.7 2.9 46 5.2 S 17 20 9 11 1021.6 1021.3 0.0
23/02:30am 14.8 10.5 3.0 45 5.3 S 15 20 8 11 1021.6 1021.3 0.0
23/02:00am 15.9 10.2 3.0 42 5.9 S 22 28 12 15 1021.4 1021.1 0.0
23/01:30am 15.8 11.1 3.3 43 5.7 S 17 22 9 12 1021.3 1021.0 0.0
23/01:00am 14.6 10.5 2.5 44 5.4 S 13 17 7 9 1021.2 1020.9 0.0
23/12:30am 15.2 11.6 2.7 43 5.6 SSE 11 13 6 7 1021.2 1020.9 0.0
23/12:00am 15.4 11.7 2.2 41 5.9 SE 11 13 6 7 1021.3 1021.0 0.0
 
Date/Time
CST
Temp
°C
App
Temp
°C
Dew
Point
°C
Rel
Hum
%
Delta-T
°C
Wind Press
QNH
hPa
Press
MSL
hPa
Rain since
9am
mm
Dir  Spd
km/h
Gust
km/h
Spd
kts
Gust
kts
22/11:30pm 16.5 12.9 2.9 40 6.2 SSE 11 13 6 7 1021.3 1021.0 0.0
22/11:00pm 16.9 12.8 2.1 37 6.7 SSE 13 15 7 8 1021.2 1020.9 0.0
22/10:30pm 18.0 13.6 2.7 36 7.0 SSE 15 17 8 9 1021.3 1021.0 0.0
22/10:00pm 17.6 13.5 2.0 35 7.1 S 13 13 7 7 1021.2 1020.9 0.0
22/09:30pm 18.7 14.2 2.1 33 7.6 SSW 15 17 8 9 1021.0 1020.7 0.0
22/09:00pm 19.2 14.7 2.1 32 7.8 SSW 15 17 8 9 1020.8 1020.5 0.0
22/08:30pm 20.0 15.5 1.9 30 8.3 S 15 17 8 9 1020.4 1020.1 0.0
22/08:00pm 20.8 16.1 1.1 27 9.0 SSW 15 17 8 9 1019.9 1019.6 0.0
22/07:30pm 21.7 17.4 0.8 25 9.5 SSW 13 15 7 8 1019.5 1019.2 0.0
22/07:00pm 23.0 17.9 0.8 23 10.3 SW 17 20 9 11 1018.9 1018.7 0.0
22/06:30pm 23.6 17.9 0.7 22 10.6 SW 20 28 11 15 1018.4 1018.2 0.0
22/06:00pm 24.5 18.8 0.8 21 11.1 WSW 20 30 11 16 1017.9 1017.7 0.0
22/05:30pm 24.7 18.3 0.9 21 11.1 WSW 24 35 13 19 1017.6 1017.4 0.0
22/05:00pm 25.0 18.6 1.2 21 11.3 WSW 24 35 13 19 1017.3 1017.1 0.0
22/04:30pm 25.5 19.2 1.6 21 11.4 SW 24 35 13 19 1017.0 1016.7 0.0
22/04:00pm 25.4 19.5 1.5 21 11.4 WSW 22 43 12 23 1017.0 1016.7 0.0
22/03:30pm 25.1 18.9 1.9 22 11.1 SW 24 41 13 22 1017.1 1016.8 0.0
22/03:00pm 24.7 19.1 0.9 21 11.2 WSW 20 35 11 19 1017.3 1017.1 0.0
22/02:30pm 24.3 18.4 1.9 23 10.7 WSW 22 30 12 16 1017.5 1017.3 0.0
22/02:00pm 23.7 18.8 2.0 24 10.3 WSW 17 32 9 17 1017.9 1017.7 0.0
22/01:30pm 23.9 18.7 2.7 25 10.2 WSW 19 39 10 21 1018.3 1018.1 0.0
22/01:00pm 23.7 18.4 3.1 26 10.0 SSW 20 32 11 17 1018.7 1018.5 0.0
22/12:36pm 22.8 16.6 2.3 26 9.7 SSW 24 48 13 26 1018.9 1018.7 0.0
22/12:30pm 22.5 17.2 3.1 28 9.3 SSW 20 35 11 19 1019.0 1018.8 0.0
22/12:00pm 22.3 16.7 3.4 29 9.1 SSW 22 32 12 17 1019.8 1019.5 0.0
22/11:30am 22.2 17.1 4.3 31 8.8 SSW 20 32 11 17 1020.3 1020.0 0.0
22/11:00am 20.9 16.9 4.9 35 7.9 SSW 15 24 8 13 1020.6 1020.3 0.0
22/10:30am 19.3 15.2 4.3 37 7.2 S 15 28 8 15 1021.1 1020.8 0.0
22/10:00am 18.3 13.4 4.1 39 6.8 S 19 28 10 15 1021.3 1021.0 0.0
22/09:30am 17.8 13.0 4.4 41 6.4 S 19 24 10 13 1021.4 1021.1 0.0
22/09:00am 17.6 12.7 4.9 43 6.1 S 20 28 11 15 1021.1 1020.8 0.0
22/08:30am 16.0 11.5 4.4 46 5.4 SSE 17 19 9 10 1021.1 1020.8 0.0
22/08:00am 14.6 11.1 3.7 48 5.0 SE 11 17 6 9 1020.8 1020.5 0.0
22/07:30am 12.6 9.7 1.6 47 4.7 SSE 6 9 3 5 1020.3 1020.0 0.0
22/07:00am 11.7 8.7 1.1 48 4.5 S 6 9 3 5 1019.8 1019.5 0.0
22/06:30am 10.4 7.3 0.2 49 4.1 NE 6 7 3 4 1019.1 1018.9 0.0
22/06:00am 10.8 6.4 0.5 49 4.2 SSE 13 15 7 8 1018.3 1018.1 0.0
22/05:30am 11.4 6.6 0.5 47 4.5 SSE 15 15 8 8 1017.5 1017.3 0.0
22/05:00am 12.8 8.1 0.9 44 5.1 S 15 19 8 10 1017.0 1016.7 0.0
22/04:30am 13.3 8.2 0.7 42 5.3 SSW 17 19 9 10 1016.6 1016.3 0.0
22/04:00am 13.2 8.0 0.3 41 5.4 SSW 17 19 9 10 1016.4 1016.1 0.0
22/03:30am 11.9 7.3 -1.3 40 5.3 S 13 13 7 7 1016.4 1016.1 0.0
22/03:00am 12.6 7.9 -1.7 37 5.7 S 13 13 7 7 1016.3 1016.0 0.0
22/02:30am 12.8 8.8 -1.9 36 5.8 S 9 11 5 6 1016.2 1015.9 0.0
22/02:00am 12.8 8.4 -2.6 34 6.0 S 11 13 6 7 1016.0 1015.7 0.0
22/01:30am 13.6 8.8 -2.8 32 6.5 S 13 15 7 8 1016.0 1015.7 0.0
22/01:00am 14.5 9.7 -2.8 30 6.9 SSW 13 17 7 9 1016.0 1015.7 0.0
22/12:30am 15.4 10.2 -2.5 29 7.2 SSW 15 17 8 9 1016.0 1015.7 0.0
22/12:00am 15.1 10.2 -3.2 28 7.2 SW 13 15 7 8 1015.9 1015.6 0.0
 
Date/Time
CST
Temp
°C
App
Temp
°C
Dew
Point
°C
Rel
Hum
%
Delta-T
°C
Wind Press
QNH
hPa
Press
MSL
hPa
Rain since
9am
mm
Dir  Spd
km/h
Gust
km/h
Spd
kts
Gust
kts
21/11:30pm 15.5 9.8 -3.4 27 7.5 SW 17 19 9 10 1015.9 1015.6 0.0
21/11:00pm 16.1 10.8 -3.4 26 7.8 SSW 15 17 8 9 1015.8 1015.5 0.0
21/10:30pm 16.1 11.6 -3.4 26 7.8 S 11 13 6 7 1015.8 1015.5 0.0
21/10:00pm 18.1 12.8 -3.9 22 8.9 WSW 15 15 8 8 1015.9 1015.6 0.0

Other formats

Comma delimited format used in spreadsheet applications
http://www.bom.gov.au/fwo/IDS60801/IDS60801.94476.axf

JavaScript Object Notation format (JSON) in row-major order
http://www.bom.gov.au/fwo/IDS60801/IDS60801.94476.json

Data quality

Most of these data are generated automatically and are frequently updated. Quality checks on data are not normally performed. It is possible for incorrect values to appear. Refer to information at About Latest Weather Observations and please check the disclaimer before using these data.